Labs

Pokémon
United States
Tournaments

1113 tournaments, 1113 completed

Alabama
4/21 Saturday
10:00 New Salisbury (47161) 1 + 5 + 8 = 14
11:00 New Salisbury (47161) 1 + 5 + 10 = 16
12:00 Birmingham (35244) 3 + 5 + 19 = 27
4/22 Sunday
12:30 Melbourne (32935) 1 + 0 + 9 = 10
4/24 Tuesday
6:00 Mooresville (46158) 3 + 6 + 7 = 16
4/28 Saturday
11:00 Mobile (36618) 2 + 3 + 12 = 17
12:00 Huntsville (35801) 2 + 7 + 13 = 22
12:30 Montgomery (36117) 0 + 0 + 8 = 8
3:00 Mobile (36618) 0 + 0 + 8 = 8
4:00 West Melbourne (32904) 0 + 2 + 6 = 8
4/29 Sunday
1:00 Opelika (36801) 0 + 3 + 12 = 15
2:00 Leeds (35094) 2 + 0 + 9 = 11
Alaska
4/29 Sunday
12:00 Anchorage (99515) 5 + 3 + 12 = 20
1:00 Fairbanks (99701) 3 + 8 + 17 = 28
Alberta
4/21 Saturday
1:00 Sherwood Park (T8A 4P4) 2 + 2 + 10 = 14
1:00 Lethbridge (T1J 2B8) 2 + 7 + 6 = 15
2:00 Calgary (T2E 8P1) 4 + 2 + 9 = 15
4/22 Sunday
11:00 Lloydminster (T9V 2H3) 0 + 1 + 11 = 12
12:00 Sherwood Park (T8A 4L7) 4 + 2 + 8 = 14
2:00 Calgary (T2E 8P1) 5 + 3 + 14 = 22
4/25 Wednesday
8:00 Lethbridge (T1J 2B8) 1 + 1 + 8 = 10
4/26 Thursday
6:00 Edmonton (T5P 3Y4) 0 + 2 + 11 = 13
4/27 Friday
6:00 Calgary (T2E 8P1) 3 + 6 + 14 = 23
4/28 Saturday
10:00 Edmonton (T5E 4C3) 3 + 0 + 9 = 12
10:00 WETASKIWIN (T9A3P5) 11 + 6 + 10 = 27
10:30 St. Albert (T8N 6A7) 6 + 6 + 7 = 19
11:00 Grande Prairie (T8V-0V3) 8 + 2 + 13 = 23
1:00 Edmonton (T5E 4C3) 0 + 0 + 12 = 12
1:30 St. Albert (T8N 6A7) 8 + 4 + 7 = 19
2:00 Calgary (T2E 8P1) 7 + 2 + 10 = 19
4:00 Grande Prairie (T8V-0V3) 1 + 1 + 15 = 17
5:30 St. Albert (T8N 6A7) 1 + 0 + 10 = 11
4/29 Sunday
10:30 St. Albert (T8N 6A7) 4 + 1 + 7 = 12
11:00 Grande Prairie (T8V-0T9) 6 + 3 + 21 = 30
12:00 Red Deer (T4N 1T1) 6 + 5 + 19 = 30
1:30 St. Albert (T8N 6A7) 5 + 4 + 4 = 13
3:15 Calgary (T3C 0K2) 0 + 3 + 5 = 8
4:00 Grande Prairie (T8V-0T9) 1 + 3 + 23 = 27
Arizona
4/21 Saturday
Tempe (85281) 0 + 2 + 38 = 40
12:00 Yuma (85364) 0 + 0 + 13 = 13
12:00 Chandler, (85226) 4 + 9 + 27 = 40
2:00 Avondale (85323) 1 + 2 + 5 = 8
2:45 Chandler, (85226) 0 + 2 + 8 = 10
3:00 Glendale (85302) 4 + 1 + 19 = 24
4/22 Sunday
10:00 TEMPE (85282) 1 + 1 + 20 = 22
12:00 Gilbert (85234) 2 + 4 + 14 = 20
1:00 TEMPE (85282) 3 + 1 + 13 = 17
1:00 Phoenix (85020) 1 + 6 + 27 = 34
3:30 Phoenix (85020) 0 + 0 + 10 = 10
4/23 Monday
6:00 Phoenix (85016) 0 + 0 + 10 = 10
4/24 Tuesday
5:30 Mesa (85204) 4 + 2 + 22 = 28
4/25 Wednesday
5:00 Yuma (85364) 1 + 0 + 8 = 9
6:00 TEMPE (85282) 0 + 1 + 11 = 12
4/28 Saturday
11:00 Tucson (85711) 0 + 4 + 7 = 11
1:00 Phoenix (85012) 1 + 3 + 23 = 27
5:00 Phoenix (85012) 1 + 0 + 16 = 17
4/29 Sunday
12:00 Tucson (85719) 1 + 8 + 29 = 38
1:00 Glendale (85306) 1 + 1 + 28 = 30
2:00 Glendale (85307) 5 + 1 + 11 = 17
Arkansas
4/21 Saturday
12:00 Sherwood (72120) 0 + 3 + 10 = 13
12:00 Sherwood (72120) 0 + 0 + 9 = 9
1:00 Van Buren (72956) 1 + 0 + 10 = 11
4/28 Saturday
11:30 Russellville (72801) 1 + 0 + 24 = 25
5:00 Fayetteville (72704) 0 + 0 + 10 = 10
4/29 Sunday
11:00 Cabot (72023) 6 + 1 + 15 = 22
British Columbia
4/21 Saturday
10:00 Mission (V2V1E4) 5 + 1 + 5 = 11
11:00 Abbotsford (V2S2G7) 4 + 3 + 5 = 12
2:00 Abbotsford (V2S2G7) 1 + 1 + 10 = 12
4/22 Sunday
10:00 Fort St. John (V1J 1Y7) 5 + 2 + 4 = 11
11:30 Port Coquitlam (V3B 3N4) 5 + 3 + 8 = 16
12:00 Victoria (V8T 4E4) 4 + 4 + 12 = 20
12:30 Prince George (V2M 0A1) 5 + 3 + 16 = 24
1:00 Langley (V4W1L3) 5 + 8 + 11 = 24
1:30 Abbotsford (V253X8) 4 + 6 + 18 = 28
4/23 Monday
9:00 Richmond (V6X 0J8) 1 + 1 + 14 = 16
4/27 Friday
5:00 Nanaimo (V9T4K6) 5 + 9 + 30 = 44
4/28 Saturday
10:00 Mission (V2V1E4) 6 + 1 + 4 = 11
10:30 Abbotsford (V253X8) 2 + 0 + 14 = 16
11:00 Vancouver (V5R 5W2) 2 + 7 + 19 = 28
11:00 Abbotsford (V2S2G7) 1 + 3 + 4 = 8
12:00 Chilliwack (V2P2N2) 4 + 2 + 3 = 9
1:00 Langley (V4W1L3) 6 + 8 + 17 = 31
1:30 Abbotsford (V253X8) 2 + 2 + 11 = 15
4/29 Sunday
10:30 Abbotsford (V253X8) 3 + 1 + 16 = 20
11:00 Surrey (V3T2W1) 2 + 4 + 6 = 12
12:00 Chilliwack (V2P2N2) 7 + 8 + 6 = 21
12:30 Prince George (V2M 0A1) 5 + 7 + 9 = 21
1:00 Vancouver (V5K 1Z9) 9 + 4 + 13 = 26
1:30 Abbotsford (V253X8) 8 + 4 + 16 = 28
California
4/21 Saturday
Winnetka (91306) 1 + 1 + 30 = 32
12:30 Westminster (92683) 7 + 3 + 13 = 23
8:30 Northridge (91324) 2 + 2 + 10 = 14
10:00 Concord (94520) 1 + 1 + 21 = 23
10:00 Modesto (95350) 0 + 2 + 10 = 12
10:30 South Gate (90280) 2 + 2 + 14 = 18
11:00 Winnetka (91306) 1 + 1 + 15 = 17
11:00 Fresno (93722) 1 + 4 + 28 = 33
11:15 Hesperia (92345) 3 + 5 + 18 = 26
11:30 Northridge (91324) 3 + 1 + 15 = 19
12:30 Santa Maria (93454) 1 + 1 + 10 = 12
1:00 Sunnyvale (94087) 4 + 1 + 13 = 18
1:00 Baldwin Park (91706) 1 + 1 + 16 = 18
1:00 Los Angeles (90045) 1 + 3 + 19 = 23
3:00 Winnetka (91306) 0 + 1 + 13 = 14
3:00 Glendale (91203) 4 + 1 + 40 = 45
3:00 South Gate (90280) 2 + 5 + 9 = 16
3:00 Elk Grove (95624) 7 + 10 + 37 = 54
4:00 Los Angeles (90045) 0 + 2 + 19 = 21
4/22 Sunday
8:30 Northridge (91324) 1 + 3 + 6 = 10
10:00 Berkeley (94704) 4 + 1 + 24 = 29
10:30 Burlingame (94010) 0 + 2 + 9 = 11
11:00 Fresno (93710) 0 + 4 + 30 = 34
11:00 Winnetka (91306) 0 + 0 + 12 = 12
11:00 Hesperia (92345) 3 + 5 + 15 = 23
11:00 Roseville (95661) 7 + 6 + 17 = 30
11:00 Lemon Grove (91945) 4 + 7 + 21 = 32
11:30 Northridge (91324) 1 + 1 + 8 = 10
12:00 Fremont (94536) 7 + 1 + 8 = 16
12:00 Montclair (91763) 4 + 3 + 23 = 30
12:00 Chatsworth (91311) 2 + 0 + 6 = 8
1:00 Oceanside (92058) 7 + 4 + 25 = 36
1:00 Westminster (92683) 1 + 4 + 9 = 14
2:00 Burlingame (94010) 1 + 2 + 6 = 9
2:00 Fresno (93710) 1 + 1 + 13 = 15
3:00 Winnetka (91306) 0 + 0 + 11 = 11
3:00 Montclair (91763) 3 + 1 + 13 = 17
3:00 Elk Grove (95624) 8 + 9 + 38 = 55
6:00 Davis (95616) 1 + 0 + 11 = 12
4/24 Tuesday
11:00 SACRAMENTO (95833) 0 + 0 + 13 = 13
4/25 Wednesday
5:30 Northridge (91324) 1 + 2 + 13 = 16
5:30 Salinas (93906) 0 + 2 + 14 = 16
4/26 Thursday
11:00 SACRAMENTO (95833) 0 + 1 + 9 = 10
5:00 Davis (95616) 1 + 1 + 9 = 11
4/27 Friday
5:00 Torrance (90503) 7 + 5 + 13 = 25
5:30 Northridge (91324) 0 + 0 + 8 = 8
4/28 Saturday
10:00 San Diego (92126) 5 + 3 + 28 = 36
10:00 Bakersfield (93313) 3 + 3 + 24 = 30
11:00 Winnetka (91306) 0 + 0 + 12 = 12
11:00 Los Angeles (90036) 1 + 2 + 24 = 27
11:00 SACRAMENTO (95833) 0 + 0 + 8 = 8
11:30 Santa Clara (95050) 4 + 2 + 27 = 33
11:30 San Francisco (94117) 5 + 0 + 12 = 17
11:30 Northridge (91324) 1 + 4 + 5 = 10
12:00 Riverside (92503) 6 + 4 + 17 = 27
12:00 Fountain Valley (92708) 2 + 2 + 9 = 13
12:00 Vacaville (95688) 2 + 1 + 13 = 16
12:00 Merced (95340) 0 + 1 + 9 = 10
2:00 San Francisco (94117) 1 + 0 + 11 = 12
2:00 Mission Viejo (92692) 13 + 5 + 8 = 26
2:15 Los Angeles (90036) 1 + 2 + 15 = 18
2:30 Northridge (91324) 4 + 2 + 10 = 16
3:00 Winnetka (91306) 1 + 0 + 12 = 13
3:00 Santa Clara (95050) 6 + 1 + 28 = 35
4:00 Riverside (92503) 1 + 3 + 26 = 30
11:30 Temecula (92591) 5 + 0 + 13 = 18
4/29 Sunday
Montclair (91763) 4 + 0 + 5 = 9
9:00 Eureka (95501) 3 + 2 + 11 = 16
9:00 Temecula (92591) 10 + 9 + 19 = 38
10:00 santa clara (95050) 9 + 3 + 21 = 33
10:00 Lancaster (93534) 3 + 1 + 11 = 15
11:00 Winnetka (91306) 0 + 1 + 9 = 10
11:00 Hesperia (92345) 5 + 3 + 18 = 26
11:00 Berkeley (94704) 4 + 0 + 18 = 22
11:30 Northridge (91324) 0 + 2 + 6 = 8
12:00 Folsom (95630) 5 + 1 + 8 = 14
12:00 Santa Monica (90401) 3 + 4 + 3 = 10
12:00 SAN DIMAS (91773) 12 + 1 + 18 = 31
1:00 Oceanside (92058) 5 + 7 + 22 = 34
1:00 Manteca (95337) 1 + 3 + 5 = 9
2:00 San Mateo (94403) 3 + 4 + 1 = 8
2:00 Burlingame (94010) 4 + 2 + 4 = 10
3:00 Winnetka (91306) 0 + 1 + 9 = 10
3:00 Montclair (91763) 1 + 1 + 6 = 8
5:30 Davis (95616) 2 + 0 + 10 = 12
Colorado
4/21 Saturday
12:01 Johnstown (80534) 2 + 0 + 20 = 22
9:00 Arvada (80003) 1 + 1 + 8 = 10
9:00 Colorado Springs (80918) 2 + 5 + 30 = 37
10:30 Colorado Springs (80918) 7 + 6 + 13 = 26
11:00 Greeley (80631) 4 + 4 + 15 = 23
12:00 Johnstown (80534) 2 + 1 + 5 = 8
3:00 Littleton (80123) 1 + 2 + 10 = 13
4/22 Sunday
10:00 pueblo (81001) 2 + 5 + 18 = 25
1:00 Littleton (80123) 1 + 6 + 18 = 25
1:00 Fort Collins (80526) 6 + 3 + 12 = 21
6:30 pueblo (81001) 1 + 1 + 13 = 15
4/24 Tuesday
6:00 Johnstown (80534) 0 + 1 + 7 = 8
4/27 Friday
6:30 Johnstown (80534) 5 + 2 + 2 = 9
4/28 Saturday
9:00 Colorado Springs (80909) 2 + 2 + 11 = 15
10:00 Aurora (80014) 1 + 1 + 6 = 8
10:00 Loveland (80537) 3 + 1 + 4 = 8
12:00 Johnstown (80534) 0 + 1 + 7 = 8
1:00 Littleton (80123) 2 + 9 + 19 = 30
3:00 Northglenn (80234) 0 + 2 + 15 = 17
5:30 Fort Collins (80526) 2 + 1 + 9 = 12
4/29 Sunday
10:00 Denver (80203) 2 + 9 + 8 = 19
1:00 Denver (80231) 2 + 2 + 12 = 16
1:00 Fort Collins (80526) 9 + 4 + 8 = 21
Connecticut
4/21 Saturday
11:00 Newington (06111) 3 + 4 + 14 = 21
11:15 Enfield (06082) 5 + 1 + 15 = 21
1:45 Enfield (06082) 5 + 2 + 13 = 20
2:00 Newington (06111) 1 + 0 + 7 = 8
4/22 Sunday
10:00 Danbury (06810) 2 + 4 + 11 = 17
4/28 Saturday
11:00 Newington (06111) 1 + 1 + 15 = 17
2:00 Newington (06111) 1 + 3 + 6 = 10
Delaware
4/21 Saturday
9:00 Smyrna (19977) 1 + 1 + 8 = 10
1:00 Smyrna (19977) 1 + 2 + 12 = 15
4/29 Sunday
12:00 Wilmington (19810) 6 + 7 + 23 = 36
3:00 Wilmington (19810) 4 + 5 + 12 = 21
District of Columbia
4/29 Sunday
10:00 Washington (20003) 8 + 2 + 17 = 27
Florida
4/21 Saturday
9:00 Miami (33186) 0 + 0 + 8 = 8
10:00 Auburndale (33823) 4 + 3 + 9 = 16
11:00 Cape Coral (33990) 2 + 1 + 15 = 18
12:00 Clermont (34711) 4 + 2 + 11 = 17
12:00 Tampa (33617) 8 + 5 + 27 = 40
12:00 Sanford (32771) 2 + 3 + 13 = 18
1:00 Miami (33186) 1 + 0 + 15 = 16
1:00 Ocala (34470) 3 + 1 + 11 = 15
1:30 Palm Bay (32905) 2 + 0 + 15 = 17
2:00 Cape Coral (33990) 2 + 1 + 7 = 10
4:30 Davie (33024) 2 + 2 + 14 = 18
5:00 Pinellas Park (33781) 12 + 2 + 16 = 30
4/22 Sunday
Tampa (33614) 5 + 1 + 23 = 29
10:45 Coconut Creek (33073) 3 + 5 + 12 = 20
11:00 Orlando (32803) 2 + 3 + 33 = 38
11:00 Kissimmee (34746) 0 + 0 + 8 = 8
11:00 Tallahassee (32303) 1 + 1 + 11 = 13
12:00 Miami (33174) 0 + 0 + 8 = 8
12:00 Hollywood (33024) 0 + 2 + 17 = 19
12:00 Sarasota (34232) 1 + 6 + 17 = 24
12:00 Jacksonville (32216) 2 + 5 + 19 = 26
1:00 Jacksonville (32205) 4 + 4 + 9 = 17
2:00 Pensacola (32504) 1 + 2 + 14 = 17
2:30 Tallahassee (32303) 0 + 0 + 16 = 16
4/23 Monday
12:00 Orlando (32828) 3 + 2 + 15 = 20
3:00 Orlando (32828) 2 + 2 + 4 = 8
4:00 Orlando (32828) 1 + 2 + 9 = 12
10:30 Orlando (32828) 0 + 0 + 8 = 8
4/24 Tuesday
12:00 Orlando (32828) 0 + 0 + 11 = 11
4:00 Orlando (32828) 1 + 0 + 8 = 9
4/25 Wednesday
5:00 Cape Coral (33990) 3 + 1 + 18 = 22
4/26 Thursday
3:00 Crestview (32536) 5 + 5 + 2 = 12
5:30 Tampa (33619) 3 + 3 + 26 = 32
8:30 Tampa (33619) 0 + 2 + 12 = 14
4/27 Friday
6:30 Kissimmee (34741) 2 + 1 + 13 = 16
4/28 Saturday
9:00 Palm Harbor (34684) 2 + 3 + 14 = 19
10:00 West Palm Beach (33409) 2 + 0 + 12 = 14
10:30 Tampa (33647) 6 + 2 + 9 = 17
11:00 Port St John (32927) 2 + 1 + 11 = 14
11:00 Orlando (32837) 3 + 10 + 9 = 22
11:00 Orlando (32837) 2 + 8 + 9 = 19
11:00 Orlando (32837) 1 + 2 + 5 = 8
11:00 Cape Coral (33990) 2 + 0 + 7 = 9
12:00 Miami (33174) 0 + 0 + 8 = 8
1:00 Ocala (34470) 6 + 4 + 17 = 27
4/29 Sunday
9:00 West Palm Beach (33409) 4 + 4 + 4 = 12
11:00 Tallahassee (32303) 3 + 0 + 11 = 14
11:30 Maitland (32751) 6 + 8 + 25 = 39
11:30 Lauderhill (33351) 3 + 0 + 9 = 12
12:00 Miami (33174) 0 + 0 + 8 = 8
12:00 Sarasota (34232) 2 + 1 + 12 = 15
1:00 Ocala (34470) 1 + 2 + 5 = 8
Georgia
4/21 Saturday
Duluth (30096) 0 + 1 + 24 = 25
Macon (31206) 1 + 1 + 20 = 22
10:00 Cumming (30040) 2 + 7 + 18 = 27
12:00 Woodstock (30188) 5 + 4 + 23 = 32
12:00 Columbus (31909) 6 + 2 + 7 = 15
12:00 Newnan (30263) 1 + 2 + 10 = 13
1:00 Valdosta (31601) 1 + 0 + 9 = 10
2:00 Macon (31206) 1 + 1 + 8 = 10
4:45 Valdosta (31601) 0 + 0 + 11 = 11
7:00 Woodstock (30188) 1 + 0 + 17 = 18
4/22 Sunday
11:30 COLUMBUS (31909) 6 + 2 + 13 = 21
12:00 Columbus (31909) 4 + 1 + 4 = 9
12:30 Roswell (30075) 3 + 7 + 14 = 24
1:45 COLUMBUS (31909) 3 + 2 + 15 = 20
3:30 Roswell (30075) 2 + 4 + 5 = 11
4/25 Wednesday
4:00 Kennesaw (30144) 2 + 0 + 12 = 14
6:00 Roswell (30075) 7 + 4 + 3 = 14
4/27 Friday
7:00 Athens (30606) 1 + 4 + 11 = 16
4/28 Saturday
11:00 Cumming (30040) 2 + 7 + 3 = 12
11:00 Warner Robins (31088) 1 + 5 + 12 = 18
12:00 Augusta (30907) 4 + 2 + 15 = 21
12:00 Braselton (30542) 1 + 1 + 6 = 8
12:00 Roswell (30076) 4 + 5 + 6 = 15
12:00 Duluth (30096) 2 + 4 + 14 = 20
3:00 Macon (31206) 1 + 1 + 9 = 11
4:00 Roswell (30076) 3 + 2 + 7 = 12
4:45 Valdosta (31601) 0 + 0 + 8 = 8
7:00 Woodstock (30188) 2 + 0 + 14 = 16
4/29 Sunday
12:00 Roswell (30076) 2 + 2 + 6 = 10
2:00 Roswell (30076) 3 + 2 + 12 = 17
Hawaii
4/21 Saturday
Honolulu (96826) 0 + 1 + 9 = 10
12:00 Honolulu (96817) 4 + 2 + 15 = 21
3:00 Honolulu (96817) 0 + 0 + 12 = 12
4/22 Sunday
12:00 Honolulu (96826) 3 + 0 + 7 = 10
12:00 Honolulu (96817) 5 + 3 + 1 = 9
Idaho
4/22 Sunday
11:00 Nampa (83651) 2 + 2 + 6 = 10
11:00 Boise (83709) 4 + 2 + 13 = 19
4/28 Saturday
1:00 Twin Falls (83301) 4 + 0 + 4 = 8
Illinois
4/21 Saturday
Washington (61571) 3 + 5 + 24 = 32
Chicago (60641) 2 + 0 + 21 = 23
Chicago (60618) 0 + 0 + 10 = 10
Berwyn (60402) 1 + 2 + 28 = 31
12:01 Elmhurst (60126) 6 + 7 + 8 = 21
12:01 Rockford (61108) 0 + 0 + 8 = 8
9:00 Loves Park (61111) 2 + 1 + 7 = 10
9:00 Berwyn (60402) 2 + 0 + 7 = 9
10:30 Chicago (60607) 12 + 0 + 5 = 17
11:00 Plainfield (60544) 2 + 1 + 5 = 8
11:00 Chicago (60618) 0 + 1 + 8 = 9
11:00 Chicago (60611) 2 + 2 + 4 = 8
1:00 Chicago (60607) 3 + 0 + 6 = 9
1:00 Loves Park (61111) 3 + 5 + 11 = 19
1:00 Berwyn (60402) 3 + 0 + 14 = 17
1:30 Chicago (60641) 1 + 0 + 13 = 14
2:00 Champaign (61820) 2 + 4 + 8 = 14
2:00 Antioch (60002) 0 + 0 + 14 = 14
2:30 Frankfort (60423) 2 + 4 + 18 = 24
5:00 Elmhurst (60126) 4 + 3 + 7 = 14
5:00 Chicago (60641) 2 + 3 + 9 = 14
4/22 Sunday
9:00 Berwyn (60402) 3 + 2 + 17 = 22
10:00 Chicago (60641) 0 + 0 + 9 = 9
12:00 Buffalo Grove (60089) 3 + 9 + 18 = 30
12:30 Skokie (60077) 2 + 8 + 4 = 14
1:00 Berwyn (60402) 5 + 4 + 32 = 41
1:00 Edwardsville (62025) 2 + 5 + 13 = 20
2:00 Antioch (60002) 0 + 2 + 6 = 8
3:00 Skokie (60077) 2 + 5 + 3 = 10
3:30 Chicago (60641) 0 + 0 + 10 = 10
4:00 Rockford (61108) 0 + 0 + 8 = 8
4/23 Monday
5:00 Niles (60714) 16 + 3 + 14 = 33
7:00 Chicago (60641) 1 + 1 + 13 = 15
4/24 Tuesday
5:00 Niles (60714) 7 + 3 + 8 = 18
5:00 Chicago (60618) 2 + 1 + 20 = 23
5:30 Chicago Ridge (60415) 2 + 0 + 8 = 10
4/25 Wednesday
7:00 Chicago (60641) 0 + 1 + 14 = 15
4/26 Thursday
9:00 Elmhurst (60126) 1 + 0 + 8 = 9
5:00 Berwyn (60402) 0 + 0 + 10 = 10
4/27 Friday
5:00 Antioch (60002) 0 + 1 + 7 = 8
6:30 Buffalo Grove (60089) 2 + 3 + 4 = 9
7:00 Frankfort (60423) 1 + 2 + 13 = 16
7:00 Chicago (60641) 1 + 0 + 9 = 10
4/28 Saturday
9:00 Loves Park (61111) 1 + 0 + 8 = 9
9:30 Downers Grove (60515) 5 + 0 + 15 = 20
10:00 Quincy (62301) 1 + 2 + 6 = 9
11:00 Chicago (60611) 1 + 1 + 6 = 8
12:00 Buffalo Grove (60089) 2 + 3 + 4 = 9
12:00 Chicago (60614) 0 + 0 + 20 = 20
12:30 Downers Grove (60515) 1 + 1 + 9 = 11
12:30 Chicago (60641) 1 + 0 + 7 = 8
1:00 Crystal Lake (60014) 4 + 5 + 6 = 15
1:00 Loves Park (61111) 1 + 2 + 10 = 13
1:00 Gurnee (60031) 0 + 0 + 10 = 10
1:00 Berwyn (60402) 3 + 4 + 4 = 11
2:00 Antioch (60002) 0 + 1 + 7 = 8
5:00 Elmhurst (60126) 5 + 1 + 4 = 10
6:00 Crystal Lake (60014) 1 + 2 + 7 = 10
4/29 Sunday
9:00 Berwyn (60402) 3 + 3 + 9 = 15
11:00 Loves Park (61111) 1 + 1 + 6 = 8
11:30 Chicago (60641) 0 + 0 + 8 = 8
12:00 Buffalo Grove (60089) 0 + 4 + 13 = 17
12:00 Edwardsville (62025) 0 + 0 + 14 = 14
1:00 Edwardsville (62025) 6 + 2 + 1 = 9
1:00 Crystal Lake (60014) 2 + 3 + 5 = 10
1:00 Berwyn (60402) 4 + 1 + 17 = 22
2:00 Antioch (60002) 0 + 0 + 12 = 12
2:30 Chicago (60641) 1 + 0 + 7 = 8
Indiana
4/21 Saturday
Greenfield (46140) 0 + 1 + 7 = 8
10:00 Indianapolis (46227) 1 + 5 + 12 = 18
12:00 Anderson (46013) 2 + 0 + 10 = 12
1:00 Indianapolis (46227) 0 + 4 + 14 = 18
3:00 Indianapolis (46268) 9 + 4 + 16 = 29
5:00 Evansville (47711) 1 + 4 + 16 = 21
6:50 Evansville (47711) 2 + 4 + 15 = 21
4/22 Sunday
11:00 Fort Wayne (46804) 2 + 7 + 9 = 18
12:00 Evansville (47711) 1 + 4 + 9 = 14
12:00 Indianapolis (46227) 1 + 2 + 13 = 16
1:00 Muncie (47303) 3 + 3 + 10 = 16
1:00 Indianapolis (46236) 2 + 2 + 7 = 11
1:00 South Bend (46637) 1 + 2 + 6 = 9
1:30 Evansville (47711) 1 + 5 + 9 = 15
4/23 Monday
5:00 Indianapolis (46227) 3 + 2 + 16 = 21
4/26 Thursday
4:30 Valparaiso (46383) 2 + 5 + 12 = 19
4/27 Friday
5:00 Evansville (47711) 1 + 4 + 22 = 27
6:50 Evansville (47711) 1 + 3 + 20 = 24
4/28 Saturday
10:00 Indianapolis (46227) 2 + 3 + 3 = 8
10:00 Bloomington (47404) 3 + 4 + 6 = 13
11:00 Indianapolis (46250) 3 + 2 + 22 = 27
2:00 Indianapolis (46250) 0 + 2 + 20 = 22
5:00 Evansville (47711) 1 + 3 + 14 = 18
6:50 Evansville (47711) 3 + 4 + 17 = 24
4/29 Sunday
11:00 Fort Wayne (46804) 1 + 3 + 6 = 10
12:00 Evansville (47711) 4 + 5 + 13 = 22
12:00 Indianapolis (46227) 4 + 1 + 9 = 14
12:00 Indianapolis (46250) 0 + 2 + 9 = 11
1:00 Muncie (47303) 0 + 2 + 13 = 15
1:00 Indianapolis (46236) 2 + 2 + 5 = 9
1:30 Evansville (47711) 1 + 3 + 9 = 13
2:30 Indianapolis (46250) 0 + 1 + 7 = 8
Iowa
4/28 Saturday
10:00 Ames (50014) 4 + 9 + 12 = 25
4/29 Sunday
11:00 Des Moines (50325) 7 + 4 + 17 = 28
1:00 Des Moines (50325) 0 + 0 + 11 = 11
Kansas
4/21 Saturday
12:01 Lenexa (66210) 2 + 2 + 25 = 29
12:15 Lenexa (66210) 0 + 0 + 12 = 12
2:00 Leavenworth (66048) 5 + 6 + 11 = 22
2:15 Lenexa (66210) 1 + 0 + 8 = 9
6:00 McPherson (67460) 2 + 0 + 18 = 20
4/22 Sunday
11:30 Mission (66205) 9 + 1 + 4 = 14
12:15 Lenexa (66210) 8 + 6 + 23 = 37
2:30 Lenexa (66210) 2 + 4 + 12 = 18
4/24 Tuesday
3:00 Great Bend (67530) 6 + 2 + 4 = 12
4/28 Saturday
11:00 Great Bend (67530) 3 + 2 + 3 = 8
2:00 Leavenworth (66048) 4 + 8 + 8 = 20
Kentucky
4/22 Sunday
12:00 Winchester (40391) 0 + 2 + 14 = 16
4:00 Louisville (40214) 0 + 0 + 38 = 38
4/28 Saturday
12:00 CORBIN (40701) 0 + 1 + 9 = 10
12:00 Louisville (40220) 2 + 2 + 10 = 14
4/29 Sunday
9:00 Winchester (40391) 1 + 3 + 4 = 8
2:00 Louisville (40220) 3 + 12 + 17 = 32
Louisiana
4/22 Sunday
12:00 Lafayette (70503) 0 + 1 + 15 = 16
2:00 Alexandria (71301) 2 + 0 + 10 = 12
4/28 Saturday
12:00 Metairie (70006) 0 + 0 + 17 = 17
4/29 Sunday
12:00 Metairie (70006) 4 + 10 + 15 = 29
Maine
4/21 Saturday
11:00 Presque Isle (04769) 5 + 4 + 11 = 20
4/22 Sunday
12:00 Westbrook (04092) 8 + 11 + 10 = 29
4/28 Saturday
11:00 Augusta (04330) 7 + 5 + 6 = 18
2:00 Augusta (04330) 2 + 3 + 3 = 8
Manitoba
4/22 Sunday
12:00 Winnipeg (R3L 2B3) 0 + 0 + 14 = 14
4/28 Saturday
10:00 Winnipeg (R3T2C5) 1 + 4 + 13 = 18
11:00 Winnipeg (R2G 1L4) 2 + 7 + 15 = 24
Maryland
4/21 Saturday
10:00 Glen Burnie (21060) 9 + 8 + 26 = 43
12:00 Abingdon (21009) 1 + 1 + 11 = 13
4/22 Sunday
11:30 Rockville (20852) 18 + 7 + 31 = 56
12:00 Hunt Valley ( 21030) 1 + 1 + 7 = 9
1:00 California (20619) 7 + 7 + 15 = 29
1:30 Rockville (20852) 1 + 0 + 9 = 10
4/28 Saturday
10:00 Glen Burnie (21060) 1 + 3 + 21 = 25
4/29 Sunday
11:00 glen burnie (21061) 2 + 5 + 16 = 23
11:30 Rockville (20852) 4 + 2 + 17 = 23
12:00 Hunt Valley ( 21030) 5 + 1 + 8 = 14
2:00 Rockville (20852) 3 + 1 + 14 = 18
Massachusetts
4/21 Saturday
9:30 Lexington (02421) 6 + 7 + 11 = 24
4/22 Sunday
9:00 SALEM (01970) 2 + 0 + 9 = 11
11:30 Somerville (02144) 6 + 2 + 16 = 24
12:00 BROCKTON (02302) 1 + 2 + 8 = 11
1:30 SALEM (01970) 3 + 1 + 6 = 10
4/28 Saturday
10:00 Tewksbury (01876) 3 + 5 + 16 = 24
10:00 CARVER (02330) 2 + 4 + 14 = 20
10:00 Cambridge (02139) 1 + 1 + 10 = 12
11:00 Woburn (01801) 3 + 2 + 5 = 10
4/29 Sunday
11:30 Norton (02766) 4 + 4 + 5 = 13
11:30 Saugus (01906) 1 + 2 + 7 = 10
12:00 New Bedford (02745) 1 + 3 + 6 = 10
Michigan
4/21 Saturday
Bay City (48706) 0 + 0 + 15 = 15
10:00 Clinton Township (48038) 0 + 0 + 12 = 12
11:00 Shelby charter township (48317) 3 + 0 + 22 = 25
11:00 Jackson (49201) 0 + 4 + 7 = 11
11:30 Garden City (48135) 1 + 4 + 18 = 23
12:00 Kentwood (49512) 9 + 12 + 25 = 46
1:30 Westland (48185) 3 + 2 + 10 = 15
2:00 Jackson (49201) 0 + 2 + 8 = 10
3:00 Clinton Township (48038) 3 + 3 + 10 = 16
3:30 Garden City (48135) 2 + 5 + 23 = 30
5:00 Jackson (49201) 0 + 5 + 13 = 18
6:00 Clinton Township (48038) 0 + 0 + 13 = 13
11:00 Clinton Township (48038) 0 + 1 + 28 = 29
4/22 Sunday
11:00 Shelby charter township (48317) 5 + 2 + 23 = 30
12:00 Tecumseh (49286) 0 + 4 + 9 = 13
12:00 Kentwood (49512) 3 + 0 + 10 = 13
1:00 Livonia (48154) 1 + 6 + 7 = 14
1:20 Howell (48843) 1 + 4 + 21 = 26
2:00 Clinton Township (48038) 0 + 0 + 13 = 13
3:30 Howell (48843) 0 + 0 + 15 = 15
4/23 Monday
5:00 Kalamazoo (49009) 2 + 0 + 6 = 8
4/24 Tuesday
5:00 Kalamazoo (49009) 1 + 2 + 5 = 8
5:00 Ludington (49431) 0 + 0 + 12 = 12
4/25 Wednesday
4:00 Kentwood (49512) 2 + 0 + 7 = 9
5:30 Jackson (49201) 1 + 4 + 6 = 11
6:00 Garden City (48135) 0 + 0 + 20 = 20
4/28 Saturday
11:00 Marquette (49855) 3 + 2 + 4 = 9
11:00 East Lansing (48823) 2 + 4 + 4 = 10
12:00 Clinton Township (48038) 1 + 0 + 7 = 8
12:00 Grand Rapids (49534) 2 + 1 + 17 = 20
1:30 Shelby charter township (48317) 4 + 2 + 24 = 30
2:00 Clinton Township (48038) 0 + 0 + 8 = 8
3:00 Grand Rapids (49534) 2 + 0 + 14 = 16
4/29 Sunday
12:00 Bay City (48706) 3 + 2 + 4 = 9
2:00 Clinton Township (48038) 1 + 4 + 9 = 14
Minnesota
4/21 Saturday
9:00 Morris (56267) 3 + 12 + 7 = 22
10:00 St Cloud (56301) 1 + 0 + 9 = 10
11:30 Winona (55987) 1 + 2 + 6 = 9
12:00 Waite Park (56387) 3 + 2 + 9 = 14
4/22 Sunday
Coon Rapids (55448) 0 + 5 + 8 = 13
12:00 Minneapolis (55406) 1 + 3 + 13 = 17
4/27 Friday
5:00 Maplewood (55109) 2 + 6 + 26 = 34
4/28 Saturday
10:00 Saint Louis Park (55426) 5 + 9 + 18 = 32
11:00 South St Paul (55075) 6 + 7 + 20 = 33
11:00 Mankato (56001) 8 + 4 + 5 = 17
11:00 Cambridge (55008) 2 + 2 + 6 = 10
3:00 Duluth (55807) 5 + 6 + 13 = 24
4:30 Moorhead (56560) 2 + 2 + 5 = 9
4/29 Sunday
12:00 Burnsville (55306) 3 + 7 + 15 = 25
12:00 Roseville (55113) 6 + 12 + 12 = 30
1:00 Duluth (55807) 4 + 0 + 6 = 10
2:30 Roseville (55113) 1 + 4 + 14 = 19
Mississippi
4/21 Saturday
12:00 Gautier (39553) 0 + 2 + 16 = 18
2:00 Pearl (39208) 0 + 2 + 11 = 13
4:00 Ridgeland (39157) 0 + 0 + 8 = 8
6:00 Pearl (39208) 0 + 1 + 7 = 8
4/22 Sunday
12:00 Tupelo (38804) 2 + 0 + 16 = 18
12:00 Gautier (39553) 6 + 7 + 36 = 49
2:00 Pearl (39208) 4 + 2 + 13 = 19
4:00 Pearl (39208) 0 + 1 + 12 = 13
4/28 Saturday
1:00 Starkville (39759) 1 + 1 + 6 = 8
2:00 Pearl (39208) 0 + 1 + 10 = 11
6:00 Pearl (39208) 0 + 1 + 11 = 12
4/29 Sunday
9:00 Tupelo (38804) 1 + 0 + 8 = 9
1:00 Starkville (39759) 1 + 2 + 6 = 9
2:00 Pearl (39208) 0 + 1 + 8 = 9
Missouri
4/21 Saturday
12:01 Independence (64050-3705) 2 + 2 + 16 = 20
2:00 Independence (64050-3705) 0 + 0 + 9 = 9
10:00 Independence (64050-3705) 3 + 2 + 9 = 14
12:30 O'Fallon (63366) 3 + 13 + 10 = 26
12:30 West Plains (65775) 3 + 2 + 7 = 12
1:00 Springfield (65804) 1 + 5 + 9 = 15
1:30 Sedalia (65301) 1 + 3 + 18 = 22
2:00 Independence (64050-3705) 1 + 1 + 8 = 10
2:30 Crestwood (63126) 5 + 3 + 7 = 15
5:00 Independence (64050-3705) 1 + 1 + 7 = 9
6:00 Springfield (65804) 2 + 5 + 16 = 23
11:15 Crestwood (63126) 0 + 3 + 24 = 27
4/22 Sunday
12:45 Crestwood (63126) 5 + 9 + 12 = 26
1:30 Sedalia (65301) 5 + 4 + 22 = 31
4/23 Monday
5:00 St. Charles (63303) 0 + 2 + 9 = 11
4/24 Tuesday
6:30 St. Peters (63376) 3 + 2 + 7 = 12
4/25 Wednesday
6:30 Crestwood (63126) 1 + 6 + 15 = 22
4/27 Friday
5:00 St. Charles (63303) 2 + 4 + 10 = 16
5:00 Springfield (65804) 4 + 0 + 6 = 10
6:00 West Plains (65775) 3 + 3 + 6 = 12
4/28 Saturday
12:00 St. Louis (63128) 3 + 4 + 13 = 20
1:00 Springfield (65804) 0 + 3 + 5 = 8
6:00 Springfield (65804) 0 + 1 + 15 = 16
4/29 Sunday
11:00 Saint Joseph (64507) 3 + 0 + 11 = 14
12:00 Springfield (65804) 2 + 0 + 10 = 12
12:00 Columbia (65203) 4 + 2 + 18 = 24
Montana
4/21 Saturday
11:00 Great Falls (59401) 3 + 1 + 7 = 11
11:00 Missoula (59801) 1 + 1 + 9 = 11
4/28 Saturday
11:00 Great Falls (59401) 2 + 2 + 4 = 8
11:00 Missoula (59801) 6 + 3 + 7 = 16
Nebraska
4/21 Saturday
10:00 Omaha (68116) 3 + 0 + 8 = 11
6:00 Omaha (68164) 0 + 2 + 21 = 23
4/22 Sunday
12:00 Omaha (68164) 4 + 3 + 16 = 23
2:00 Omaha (68164) 3 + 2 + 13 = 18
4/23 Monday
5:00 Omaha (68144) 5 + 5 + 24 = 34
4/24 Tuesday
12:00 Bellevue (68005) 8 + 7 + 22 = 37
4/28 Saturday
10:00 McCook (69001) 4 + 4 + 3 = 11
4/29 Sunday
12:00 Lincoln (68506) 6 + 1 + 17 = 24
12:00 Omaha (68144) 4 + 4 + 11 = 19
12:00 Kearney (68845) 0 + 2 + 8 = 10
3:00 Omaha (68144) 3 + 3 + 7 = 13
4:00 Kearney (68845) 1 + 2 + 8 = 11
Nevada
4/21 Saturday
12:00 Las Vegas (89146) 2 + 2 + 28 = 32
12:00 Reno (89502) 0 + 3 + 19 = 22
3:00 Reno (89502) 0 + 2 + 15 = 17
4/22 Sunday
11:00 Reno (89502) 1 + 2 + 7 = 10
2:00 Las Vegas (89121) 0 + 3 + 20 = 23
4/28 Saturday
12:00 Las Vegas (89146) 0 + 1 + 7 = 8
4/29 Sunday
2:00 Las Vegas (89121) 1 + 2 + 7 = 10
New Brunswick
4/21 Saturday
11:30 Saint John (E2M 7X1) 2 + 7 + 12 = 21
4/28 Saturday
11:00 Moncton (E1C2N4) 2 + 5 + 6 = 13
11:30 Saint John (E2M 7X1) 2 + 3 + 4 = 9
4/29 Sunday
9:00 Saint John (E2L2H3) 5 + 4 + 6 = 15
12:30 Fredericton (E3B 3B9) 7 + 1 + 13 = 21
4:30 Fredericton (E3B 3B9) 1 + 1 + 9 = 11
New Hampshire
4/21 Saturday
10:00 Londonderry (03053) 2 + 7 + 16 = 25
2:00 Rochester (03867) 3 + 7 + 21 = 31
4/22 Sunday
10:00 Nashua (03063) 3 + 4 + 7 = 14
11:00 Manchester (03103) 3 + 6 + 9 = 18
4/28 Saturday
10:00 Nashua (03063) 3 + 4 + 7 = 14
2:00 Nashua (03063) 0 + 4 + 4 = 8
4/29 Sunday
10:00 Lebanon (03766) 0 + 0 + 10 = 10
New Jersey
4/21 Saturday
Clifton (07012 ) 0 + 0 + 27 = 27
10:00 Matawan (07747) 1 + 6 + 7 = 14
11:00 Randolph (07869) 4 + 2 + 7 = 13
12:00 Haddon Township (08108) 3 + 7 + 14 = 24
12:00 Franklin (07416) 0 + 3 + 9 = 12
12:00 Franklin (07416) 0 + 3 + 8 = 11
1:00 Matawan (07747) 1 + 8 + 9 = 18
4:00 Matawan (07747) 0 + 5 + 10 = 15
4/22 Sunday
10:00 Randolph (07869) 4 + 4 + 12 = 20
10:30 somerville (08876) 3 + 6 + 15 = 24
11:00 Livingston (07039) 16 + 9 + 13 = 38
11:00 Egg Harbor Township (08234) 3 + 7 + 13 = 23
12:00 Boonton (07005) 3 + 3 + 19 = 25
4/23 Monday
12:30 Randolph (07869) 0 + 3 + 11 = 14
4/27 Friday
5:30 Boonton (07005) 11 + 6 + 23 = 40
4/28 Saturday
9:00 Cedar Grove (07009) 6 + 5 + 20 = 31
10:00 Scotch Plains (07076) 3 + 9 + 12 = 24
10:00 Hamilton (08619) 5 + 5 + 11 = 21
11:00 Hillsdale (07642) 2 + 1 + 19 = 22
1:00 FAIR HAVEN (07704-3372) 7 + 4 + 8 = 19
3:00 Hamilton (08619) 1 + 5 + 5 = 11
3:30 Hillsdale (07642) 1 + 0 + 7 = 8
3:30 Hillsdale (07642) 1 + 1 + 6 = 8
4/29 Sunday
12:00 Medford (08055) 0 + 1 + 13 = 14
New Mexico
4/28 Saturday
10:00 Albuquerque (87106) 3 + 4 + 23 = 30
New York
4/21 Saturday
Brooklyn (11229) 0 + 0 + 10 = 10
10:00 Rochester (14623) 5 + 4 + 23 = 32
10:00 Catskill (12414) 0 + 3 + 15 = 18
10:00 Massapequa (11758) 2 + 1 + 11 = 14
11:00 Brooklyn (11229) 3 + 2 + 15 = 20
11:00 Rochester (14623) 5 + 2 + 25 = 32
12:00 West Babylon (11704) 1 + 1 + 15 = 17
12:00 Brooklyn (11232) 0 + 0 + 13 = 13
2:00 CROTON ON HUDSON (10520) 7 + 6 + 14 = 27
2:30 Brooklyn (11229) 1 + 2 + 20 = 23
2:30 Selden (11784) 1 + 2 + 7 = 10
3:00 West Babylon (11704) 1 + 1 + 9 = 11
4:30 Kenmore (14217) 3 + 4 + 14 = 21
6:00 Brooklyn (11214) 0 + 0 + 17 = 17
4/22 Sunday
10:00 Catskill (12414) 1 + 0 + 9 = 10
11:00 Albany (12205) 2 + 2 + 22 = 26
11:00 Whitesboro (13492) 0 + 1 + 9 = 10
11:30 Hyde Park (12538) 4 + 2 + 11 = 17
12:00 Poughkeepsie (12601) 5 + 7 + 21 = 33
12:30 Kenmore (14217) 2 + 2 + 9 = 13
2:30 Selden (11784) 0 + 1 + 13 = 14
4/25 Wednesday
6:00 Selden (11784) 0 + 0 + 20 = 20
4/26 Thursday
6:00 Albany (12205) 2 + 4 + 17 = 23
4/27 Friday
1:00 Oneida (13421) 5 + 4 + 11 = 20
5:30 derby (14047) 4 + 5 + 18 = 27
4/28 Saturday
10:00 New York (10016) 0 + 2 + 13 = 15
10:00 Lynbrook (11563) 3 + 1 + 10 = 14
11:00 Albany (12205) 3 + 0 + 5 = 8
11:00 Whitesboro (13492) 1 + 2 + 12 = 15
11:00 Johnson City (13790) 2 + 3 + 8 = 13
11:30 Wantagh (11793) 2 + 6 + 9 = 17
12:00 West Babylon (11704) 0 + 1 + 8 = 9
12:00 Nanuet (10954) 0 + 1 + 10 = 11
1:30 New York (10016) 0 + 2 + 21 = 23
2:00 CROTON ON HUDSON (10520) 6 + 3 + 11 = 20
3:00 West Babylon (11704) 1 + 1 + 6 = 8
4:00 Clifton Park (12065) 4 + 1 + 27 = 32
4:30 Kenmore (14217) 1 + 2 + 17 = 20
4/29 Sunday
10:00 Lynbrook (11563) 2 + 2 + 8 = 12
10:30 New York (10016) 2 + 0 + 15 = 17
12:00 Brooklyn (11231) 10 + 5 + 8 = 23
12:00 East Greenbush (12061) 7 + 0 + 3 = 10
12:00 Wantagh (11793) 7 + 6 + 7 = 20
12:30 Kenmore (14217) 1 + 1 + 8 = 10
1:30 New York (10016) 0 + 0 + 11 = 11
Newfoundland and Labrador
4/28 Saturday
12:00 Mount Pearl (A1N 1W3) 3 + 7 + 17 = 27
4/29 Sunday
12:00 Mount Pearl (A1N 1W3) 2 + 8 + 10 = 20
North Carolina
4/21 Saturday
10:30 Charlotte (28214) 3 + 6 + 6 = 15
12:00 Asheville (28803) 5 + 8 + 7 = 20
12:00 Jacksonville (28546) 2 + 2 + 16 = 20
4/22 Sunday
11:00 Raleigh (27612) 0 + 0 + 15 = 15
12:00 Raleigh (27603) 3 + 6 + 14 = 23
12:30 Kannapolis (28083) 2 + 3 + 15 = 20
1:00 Charlotte (28226) 3 + 3 + 9 = 15
3:00 Charlotte (28205) 1 + 0 + 7 = 8
3:30 Kannapolis (28083) 2 + 0 + 17 = 19
4/25 Wednesday
5:00 Charlotte (28214) 3 + 2 + 6 = 11
4/26 Thursday
6:30 Charlotte (28226) 0 + 1 + 7 = 8
4/28 Saturday
9:30 Cary (27511) 7 + 9 + 20 = 36
10:30 Charlotte (28214) 1 + 2 + 6 = 9
11:30 Statesville (28625) 2 + 3 + 13 = 18
12:00 Cary (27511) 8 + 6 + 10 = 24
1:00 Wilmington (28403) 4 + 1 + 9 = 14
1:00 New Bern (28562) 4 + 2 + 10 = 16
1:30 Charlotte (28214) 3 + 3 + 8 = 14
4/29 Sunday
11:00 Durham (27707) 9 + 4 + 17 = 30
12:00 Hickory (28602) 6 + 9 + 35 = 50
12:30 Kannapolis (28083) 4 + 2 + 10 = 16
3:00 Wilmington (28403) 4 + 1 + 11 = 16
3:30 Kannapolis (28083) 3 + 0 + 10 = 13
3:30 Charlotte (28214) 2 + 0 + 6 = 8
North Dakota
4/26 Thursday
5:30 Fargo (58103) 3 + 1 + 12 = 16
4/29 Sunday
12:00 Fargo (58102) 3 + 4 + 2 = 9
3:00 Fargo (58102) 0 + 3 + 6 = 9
Nova Scotia
4/21 Saturday
9:00 YARMOUTH (B5A 1E6) 2 + 2 + 17 = 21
12:30 Middleton (B0S 1P0) 1 + 1 + 6 = 8
4/28 Saturday
12:30 Sydney (B1P1C6) 1 + 0 + 7 = 8
12:30 Halifax (B3L 1A4) 2 + 2 + 17 = 21
4/29 Sunday
12:00 Sydney (B1S 1P4) 5 + 1 + 9 = 15
12:30 Middleton (B0S 1P0) 1 + 4 + 5 = 10
12:30 Halifax (B3L 1A4) 4 + 3 + 10 = 17
Ohio
4/21 Saturday
Findlay (45840) 0 + 4 + 21 = 25
10:00 North Olmsted (44070) 6 + 6 + 14 = 26
11:00 Heath (43056) 4 + 0 + 7 = 11
11:00 Green (44685) 0 + 3 + 7 = 10
11:00 Cuyahoga Falls (44221) 4 + 1 + 14 = 19
11:30 Mansfield (44907) 0 + 1 + 7 = 8
12:00 Toledo (43613) 1 + 2 + 10 = 13
12:00 Centerville (45458) 1 + 2 + 20 = 23
12:00 Streetsboro (44241) 1 + 2 + 8 = 11
2:30 Galion (44833) 0 + 1 + 7 = 8
3:30 Green (44685) 1 + 1 + 15 = 17
4:30 Centerville (45458) 1 + 4 + 17 = 22
5:00 Ashtabula (44004) 1 + 9 + 11 = 21
5:00 Kent (44242) 0 + 2 + 17 = 19
5:30 Dublin (43017) 3 + 2 + 15 = 20
6:30 Niles (44446 ) 2 + 3 + 13 = 18
4/22 Sunday
9:00 Newark (43055) 2 + 2 + 7 = 11
11:00 Columbus (43210) 1 + 4 + 7 = 12
12:00 Sylvania (43560) 2 + 0 + 35 = 37
12:00 Streetsboro (44241) 1 + 2 + 9 = 12
12:15 Alliance (44601) 5 + 2 + 16 = 23
1:30 Columbus (43210) 2 + 1 + 20 = 23
4:30 Niles (44446 ) 4 + 2 + 7 = 13
10:00 Niles (44446 ) 1 + 1 + 6 = 8
4/23 Monday
5:00 Green (44685) 2 + 2 + 20 = 24
4/24 Tuesday
5:15 Strongsville (44136) 0 + 4 + 7 = 11
6:00 Avon Lake (44012) 0 + 0 + 8 = 8
4/25 Wednesday
6:15 Akron (44308) 2 + 0 + 10 = 12
4/26 Thursday
5:30 Ashtabula (44004) 1 + 4 + 10 = 15
6:00 Avon (44011) 3 + 1 + 6 = 10
6:00 Dayton (45419) 1 + 3 + 20 = 24
4/28 Saturday
9:00 Dublin (43017) 2 + 7 + 6 = 15
11:00 Sandusky (44870) 0 + 0 + 8 = 8
11:30 Dublin (43017) 1 + 1 + 11 = 13
12:00 Findlay (45840) 2 + 7 + 12 = 21
12:00 Streetsboro (44241) 4 + 2 + 8 = 14
2:30 Dublin (43017) 2 + 2 + 4 = 8
4:00 Ashtabula (44004) 1 + 6 + 16 = 23
4/29 Sunday
11:00 Kettering (45429) 1 + 3 + 39 = 43
12:00 Sylvania (43560) 4 + 1 + 28 = 33
12:00 North Canton (44720) 4 + 4 + 24 = 32
1:00 Berea (44017) 1 + 1 + 24 = 26
1:00 Columbus (43210) 1 + 0 + 23 = 24
Oklahoma
4/21 Saturday
12:00 Jenks (74037) 0 + 5 + 20 = 25
4/22 Sunday
9:00 Tulsa (74133) 3 + 3 + 24 = 30
4/23 Monday
5:00 Norman (73069) 3 + 3 + 18 = 24
4/28 Saturday
9:00 Moore (73160) 11 + 2 + 14 = 27
10:00 Oklahoma City (73139) 6 + 3 + 10 = 19
4:00 Tulsa (74112) 0 + 1 + 7 = 8
Ontario
4/21 Saturday
Toronto (Scarborough) (M1V 1K4) 1 + 0 + 7 = 8
Windsor (N8W 1B9) 0 + 0 + 10 = 10
9:00 Oshawa (L1G 1K6) 9 + 6 + 16 = 31
10:00 Fort Erie (L2A 5M4) 1 + 0 + 7 = 8
10:00 Vaughan (L4K 2A1) 9 + 7 + 23 = 39
10:00 Mississauga (L5A 3Y1) 5 + 10 + 33 = 48
11:00 oakville (L6K2G3) 4 + 6 + 13 = 23
11:00 Brampton (L6Y 1L9) 4 + 0 + 4 = 8
11:00 Brampton (L6Z 1R3) 4 + 7 + 8 = 19
11:00 Barrie (L4N5W4) 2 + 2 + 12 = 16
11:00 Niagara Falls (L2E 2L4) 5 + 5 + 7 = 17
11:30 Mississauga (L5L 3A2) 11 + 6 + 21 = 38
12:00 Windsor (N8W 1B9) 0 + 1 + 10 = 11
12:00 Ottawa (K2J 5G4) 4 + 11 + 13 = 28
12:00 Windsor (N8W 1C2) 0 + 3 + 7 = 10
12:00 Toronto (M4Y1V8) 0 + 2 + 14 = 16
12:15 Toronto (Scarborough) (M1V 1K4) 1 + 0 + 16 = 17
12:30 Markham (L3P1Y1) 0 + 1 + 8 = 9
2:00 Vaughan (L4K 2A1) 8 + 11 + 44 = 63
4/22 Sunday
Kingston (K7L-1G2) 1 + 1 + 6 = 8
9:00 Thunder Bay (P7C 4S4) 6 + 4 + 11 = 21
10:00 Hamilton (L8T 2R5) 0 + 4 + 19 = 23
10:00 Brampton (L6Z 1R3) 2 + 7 + 8 = 17
10:00 Milton (L9T 5B2) 3 + 3 + 4 = 10
11:00 oakville (L6K2G3) 3 + 9 + 13 = 25
11:00 Waterloo (N2L 6L7) 2 + 0 + 8 = 10
11:00 St. Catharines (L2R 5J3) 2 + 1 + 6 = 9
11:30 Brampton (L6Y 1N7) 13 + 11 + 34 = 58
12:00 Toronto (M1V 1K4) 7 + 2 + 17 = 26
12:00 North Bay (P1B1G4) 1 + 2 + 7 = 10
12:30 Toronto (M4P 1A6) 1 + 3 + 11 = 15
3:00 Windsor (N8W 1C2) 4 + 1 + 6 = 11
4:00 Ajax (L1S 7J4) 1 + 1 + 6 = 8
4/23 Monday
5:00 oakville (L6K2G3) 4 + 5 + 11 = 20
7:30 Markham (L3R 9Y2) 1 + 0 + 15 = 16
4/25 Wednesday
4:00 Guelph (N1H7T8) 1 + 1 + 6 = 8
5:00 oakville (L6K2G3) 2 + 2 + 4 = 8
6:00 Vaughan (L4J7Y3) 3 + 3 + 4 = 10
4/26 Thursday
4:00 Guelph (N1G4W3) 4 + 0 + 5 = 9
4/27 Friday
9:00 Toronto (M1V 1K4) 1 + 0 + 9 = 10
4/28 Saturday
2:30 Vaughan (L4J7Y3) 0 + 4 + 11 = 15
9:00 Toronto (M4Y1X9) 2 + 2 + 11 = 15
10:00 Mississauga (L5A 3Y1) 2 + 5 + 27 = 34
11:00 Toronto (M4Y1X9) 1 + 3 + 12 = 16
11:00 Orangeville (L9W 1K2) 2 + 4 + 9 = 15
11:00 oakville (L6K2G3) 4 + 4 + 7 = 15
11:00 Port Dover (N0A 1N0) 1 + 2 + 7 = 10
11:00 Grimsby (L3M1R4) 6 + 6 + 2 = 14
11:30 Barrie (L4M 6J4) 2 + 1 + 10 = 13
12:00 Windsor (N8W 1B9) 0 + 0 + 10 = 10
12:00 Cambridge (N3H4W5) 3 + 6 + 12 = 21
12:00 Toronto (M1V 1K4) 0 + 0 + 9 = 9
1:00 Georgetown (L7G3Z5) 3 + 2 + 4 = 9
3:00 Kitchener (N2G 2L2) 2 + 2 + 6 = 10
5:00 Toronto (M4E1E8) 3 + 2 + 10 = 15
7:00 Kitchener (N2G 2L2) 3 + 2 + 5 = 10
4/29 Sunday
9:30 Whitby (L1N 5H5) 8 + 4 + 13 = 25
10:00 Milton (L9T 5B2) 2 + 3 + 25 = 30
11:00 St Catharines (L2T3J9) 2 + 2 + 9 = 13
11:00 London (N6E3M2) 2 + 3 + 11 = 16
11:00 oakville (L6K2G3) 10 + 6 + 11 = 27
11:30 Barrie (L4M 6J4) 4 + 4 + 7 = 15
11:30 Vaughan (L4J7Y3) 1 + 2 + 6 = 9
12:00 Ottawa (K1K 3B7) 6 + 9 + 24 = 39
12:30 Burlington (L7R 2E4) 1 + 3 + 4 = 8
3:00 Windsor (N8W 1C2) 3 + 0 + 5 = 8
6:00 North Bay (P1B1G4) 0 + 0 + 14 = 14
Oregon
4/21 Saturday
10:30 Salem (97301) 6 + 0 + 15 = 21
11:00 Portland (97206) 2 + 2 + 11 = 15
11:30 Milwaukie (97068) 2 + 6 + 13 = 21
11:45 Milwaukie (97267) 1 + 4 + 36 = 41
2:00 Medford (97501) 2 + 3 + 10 = 15
4/22 Sunday
12:00 Portland (97214) 4 + 4 + 12 = 20
12:00 Wilsonville (97070) 2 + 6 + 4 = 12
4/23 Monday
5:30 Portland (97213) 1 + 0 + 7 = 8
5:30 Troutdale (97060) 5 + 2 + 12 = 19
4/28 Saturday
9:30 Aloha (97003) 5 + 13 + 14 = 32
10:00 Bend (97702) 5 + 3 + 5 = 13
12:00 Portland (97202) 9 + 3 + 9 = 21
4/29 Sunday
11:00 Salem (97301) 5 + 3 + 13 = 21
12:00 Hood River (97031) 6 + 0 + 2 = 8
1:30 Troutdale (97060) 5 + 2 + 3 = 10
Pennsylvania
4/21 Saturday
Altoona (16602) 0 + 2 + 6 = 8
10:00 Lancaster (17603) 1 + 5 + 13 = 19
10:00 East Norriton (19401) 0 + 4 + 16 = 20
12:00 Altoona (16602) 1 + 2 + 5 = 8
12:00 Coopersburg (10836) 4 + 1 + 20 = 25
12:00 Bethel Park (15102) 4 + 11 + 37 = 52
12:00 Indiana (15701) 3 + 1 + 7 = 11
12:30 East Norriton (19401) 2 + 3 + 16 = 21
1:00 Reading (19605) 2 + 2 + 10 = 14
4:00 West Chester (19380) 10 + 5 + 7 = 22
4/22 Sunday
12:00 West Mifflin (15123) 0 + 0 + 8 = 8
1:00 Waynesboro (17268) 0 + 2 + 12 = 14
1:00 Stroudsburg (18360) 1 + 2 + 25 = 28
1:00 Indiana (15701) 3 + 1 + 9 = 13
1:00 Grove City (16127) 2 + 3 + 9 = 14
3:00 Stroudsburg (18360) 0 + 1 + 8 = 9
4/24 Tuesday
6:00 West Chester (19380) 1 + 1 + 13 = 15
4/25 Wednesday
4:00 Pittsburgh (15232) 3 + 0 + 6 = 9
4/26 Thursday
5:00 Ebensburg (15931) 3 + 3 + 5 = 11
5:45 Lancaster (17603) 1 + 0 + 7 = 8
4/28 Saturday
11:00 Ebensburg (15931) 0 + 1 + 7 = 8
11:30 Bellefonte (16823) 5 + 5 + 5 = 15
12:00 Chambersburg (17201) 1 + 1 + 6 = 8
12:00 Latrobe (15650) 3 + 1 + 6 = 10
12:00 Coopersburg (10836) 0 + 2 + 14 = 16
12:00 Greensburg (15601) 3 + 3 + 6 = 12
1:00 New Holland (17557) 1 + 2 + 6 = 9
3:00 Lancaster (17603) 2 + 0 + 10 = 12
4:00 West Chester (19380) 11 + 3 + 12 = 26
4:00 Cranberry Township (16066) 6 + 1 + 6 = 14
4/29 Sunday
12:00 York (17402) 9 + 1 + 21 = 31
12:00 Stroudsburg (18360) 1 + 1 + 12 = 14
12:00 Bellefonte (16823) 0 + 2 + 8 = 10
1:00 Cranberry Township (16066) 1 + 3 + 6 = 10
2:00 York (17402) 0 + 1 + 13 = 14
4:30 Stroudsburg (18360) 1 + 1 + 6 = 8
Puerto Rico
4/21 Saturday
11:00 Caguas (00725) 2 + 4 + 21 = 27
1:00 Ponce (00717) 0 + 1 + 9 = 10
4/22 Sunday
11:00 Aguadilla (00603) 0 + 0 + 15 = 15
4/29 Sunday
11:00 San Juan (00918) 0 + 0 + 8 = 8
Quebec
4/21 Saturday
Gatineau (J9H 6A6) 7 + 4 + 17 = 28
9:00 sherbrooke (J1H 1P4) 2 + 2 + 4 = 8
9:00 Gatineau (J9H 6A6) 6 + 1 + 13 = 20
9:30 joliette (J6E 5E8) 2 + 5 + 26 = 33
11:00 Chateauguay (J6K 1C4) 1 + 0 + 10 = 11
11:00 Québec (G1K 3B9) 0 + 0 + 14 = 14
12:00 Sherbrooke (J1H 5A9) 2 + 2 + 4 = 8
12:00 Montreal (H2K2H9) 0 + 0 + 16 = 16
12:00 Chateauguay (J6K 3J9) 1 + 0 + 10 = 11
12:30 joliette (J6E 5E8) 5 + 2 + 15 = 22
3:00 Québec (G1K 3B9) 0 + 0 + 16 = 16
4/22 Sunday
10:00 Saint-Jerome (J7Z5B8) 2 + 4 + 14 = 20
10:30 Gatineau (J8T 6H5) 2 + 3 + 12 = 17
10:30 Gatineau (J8T 6H5) 5 + 8 + 17 = 30
11:00 Chateauguay (J6K 1C4) 0 + 2 + 6 = 8
11:00 Québec (G1K 3B9) 3 + 1 + 12 = 16
12:00 Trois-Rivières (G8Z 3W2) 0 + 0 + 9 = 9
12:00 Chateauguay (J6K 3J9) 2 + 2 + 13 = 17
6:00 Cowansville (J2K2X6) 0 + 1 + 10 = 11
4/25 Wednesday
6:30 Montreal (H3L 2E8) 4 + 1 + 12 = 17
4/26 Thursday
6:00 Sherbrooke (J1G 1B6) 0 + 0 + 8 = 8
4/28 Saturday
9:30 joliette (J6E 5E8) 0 + 0 + 12 = 12
9:30 Beloeil (J3G 2M9) 0 + 1 + 9 = 10
10:00 Quebec (G1G 5X3) 1 + 0 + 19 = 20
10:00 Quebec (G1G 5X3) 2 + 1 + 13 = 16
11:00 Verdun (H4G1W6) 2 + 1 + 8 = 11
11:00 Chateauguay (J6K 1C4) 0 + 1 + 8 = 9
11:00 Montreal (H3L 2E8) 1 + 1 + 9 = 11
11:30 Rosemere (J7A 2H3) 5 + 0 + 3 = 8
12:00 joliette (J6E 5E8) 3 + 0 + 13 = 16
12:00 Chateauguay (J6K 3J9) 0 + 1 + 8 = 9
12:30 Val-d'Or (J9P 1S4) 1 + 0 + 9 = 10
1:00 Beloeil (J3G 2M9) 2 + 1 + 9 = 12
5:00 Longueuil (J4K 2C5) 4 + 8 + 31 = 43
4/29 Sunday
9:30 Beloeil (J3G 2M9) 0 + 0 + 12 = 12
9:30 Montréal (H2R 1P8) 7 + 3 + 5 = 15
10:00 Saint-Jerome (J7Z5B8) 0 + 6 + 10 = 16
10:00 Sherbrooke (J1G 1B6) 2 + 0 + 12 = 14
11:00 Montreal (H2S 2M2) 8 + 2 + 20 = 30
11:00 Chateauguay (J6K 1C4) 0 + 0 + 9 = 9
12:00 Chateauguay (J6K 3J9) 2 + 4 + 6 = 12
1:00 Beloeil (J3G 2M9) 5 + 3 + 7 = 15
Rhode Island
4/28 Saturday
1:15 Warwick (02888) 2 + 3 + 20 = 25
4/29 Sunday
10:00 Pawtucket (02860) 4 + 3 + 11 = 18
South Carolina
4/21 Saturday
Rock Hill (29730) 1 + 1 + 14 = 16
1:15 Rock Hill (29730) 4 + 5 + 7 = 16
4/22 Sunday
2:00 Anderson (29621) 1 + 1 + 6 = 8
2:20 Myrtle Beach (29579) 1 + 0 + 13 = 14
4/24 Tuesday
11:00 Greenville (29607) 5 + 5 + 5 = 15
4/27 Friday
6:15 Rock Hill (29730) 6 + 5 + 16 = 27
4/28 Saturday
9:00 Myrtle Beach (29588) 24 + 11 + 28 = 63
9:00 Rock Hill (29730) 1 + 1 + 6 = 8
9:15 Rock Hill (29730) 1 + 4 + 4 = 9
11:00 Summerville (29485) 0 + 0 + 9 = 9
2:00 Anderson (29621) 2 + 1 + 5 = 8
5:00 Summerville (29485) 0 + 2 + 9 = 11
5:00 Greenville (29607) 2 + 4 + 19 = 25
4/29 Sunday
12:00 Summerville (29485) 1 + 1 + 12 = 14
12:00 Rock Hill (29730) 0 + 1 + 13 = 14
12:30 Columbia (29210) 9 + 4 + 40 = 53
South Dakota
4/21 Saturday
1:00 Sioux Falls (57104) 9 + 7 + 24 = 40
Tennessee
4/21 Saturday
Madison (37115) 0 + 1 + 19 = 20
10:30 Madison (37115) 2 + 1 + 19 = 22
12:00 Sevierville (37862) 6 + 2 + 12 = 20
2:30 Madison (37115) 4 + 3 + 18 = 25
6:30 Madison (37115) 3 + 2 + 21 = 26
4/22 Sunday
12:00 Bristol (37620) 1 + 1 + 10 = 12
12:00 Madison (37115) 3 + 1 + 23 = 27
12:15 Franklin (37217) 1 + 2 + 9 = 12
3:30 Madison (37115) 0 + 3 + 21 = 24
4/25 Wednesday
5:00 Knoxville (37924) 4 + 3 + 27 = 34
4/28 Saturday
10:00 Clarksville (37042) 11 + 6 + 18 = 35
10:00 Memphis (38133) 3 + 4 + 29 = 36
10:00 Knoxville (37919) 7 + 2 + 26 = 35
11:00 Cookeville (38501) 2 + 4 + 9 = 15
12:00 Murfreesboro (37129) 3 + 1 + 10 = 14
4/29 Sunday
10:00 Chattanooga (37415) 2 + 3 + 24 = 29
12:00 Morristown (37813) 2 + 0 + 10 = 12
12:00 Maryville (37801) 3 + 7 + 15 = 25
Texas
4/21 Saturday
Waco (76706) 1 + 1 + 12 = 14
9:00 El Paso (79902) 0 + 3 + 23 = 26
9:00 McKinney (75070) 1 + 3 + 4 = 8
9:00 Plano (75023) 4 + 13 + 22 = 39
10:00 Humble (77338) 1 + 2 + 13 = 16
11:00 Lubbock (79412) 9 + 8 + 19 = 36
11:00 Bedford (76021) 1 + 1 + 19 = 21
11:00 Oak Ridge North (77385) 11 + 2 + 13 = 26
11:30 Tyler (75707) 5 + 3 + 10 = 18
12:00 Ft. Worth (76140) 0 + 0 + 8 = 8
1:00 San Antonio (78253) 2 + 6 + 24 = 32
1:00 Mission (78572) 0 + 1 + 36 = 37
2:00 MANSFIELD (76063) 4 + 2 + 10 = 16
3:00 Ft. Worth (76140) 1 + 0 + 7 = 8
3:00 Bedford (76021) 2 + 2 + 17 = 21
4:00 Longview (75604) 4 + 3 + 5 = 12
4:00 Waco (76706) 0 + 1 + 14 = 15
5:00 El Paso (79925) 0 + 1 + 25 = 26
6:00 Flower Mound (75028) 3 + 2 + 7 = 12
4/22 Sunday
2:00 MANSFIELD (76063) 1 + 3 + 6 = 10
10:00 Austin (78757) 10 + 8 + 28 = 46
11:00 san antonio (78229) 5 + 3 + 48 = 56
11:00 Austin (78727) 1 + 0 + 15 = 16
12:00 Spring (77388) 7 + 4 + 8 = 19
12:00 Laredo (78043) 0 + 0 + 16 = 16
12:00 Cypress (77429) 6 + 2 + 12 = 20
12:00 Houston (77089) 5 + 5 + 24 = 34
1:00 Fort Worth (76133) 0 + 1 + 7 = 8
1:00 Conroe (77301) 9 + 1 + 22 = 32
1:00 Dallas (75287) 4 + 2 + 24 = 30
1:00 Bedford (76021) 1 + 3 + 19 = 23
1:30 Copperas Cove (76522) 2 + 0 + 16 = 18
2:00 Fort Worth (76133) 0 + 1 + 9 = 10
3:30 Corpus Christi (78413) 0 + 4 + 14 = 18
4/23 Monday
5:00 Plano (75023) 2 + 9 + 14 = 25
6:30 Austin (78727) 1 + 0 + 11 = 12
4/24 Tuesday
6:30 Austin (78727) 0 + 0 + 10 = 10
4/26 Thursday
5:00 Conroe (77301) 11 + 4 + 24 = 39
6:00 MANSFIELD (76063) 6 + 1 + 10 = 17
6:00 El Paso (79925) 1 + 1 + 12 = 14
4/27 Friday
11:00 Bedford (76021) 0 + 2 + 22 = 24
4/28 Saturday
10:00 Tyler (75701) 0 + 5 + 16 = 21
11:00 Houston (77077) 2 + 4 + 24 = 30
11:00 Bedford (76021) 0 + 1 + 9 = 10
11:30 Tyler (75707) 0 + 4 + 8 = 12
12:00 San Antonio (78231) 2 + 2 + 15 = 19
12:00 Frisco (75034) 4 + 5 + 18 = 27
1:00 Conroe (77301) 2 + 2 + 4 = 8
2:00 Brownwood (76801) 2 + 0 + 10 = 12
2:00 Waco (76706) 0 + 2 + 14 = 16
4:00 Longview (75604) 0 + 1 + 7 = 8
6:00 Flower Mound (75028) 1 + 1 + 7 = 9
6:00 El Paso (79925) 0 + 0 + 14 = 14
4/29 Sunday
3:00 Dallas (75247) 0 + 1 + 13 = 14
10:00 Austin (78757) 10 + 9 + 26 = 45
11:00 Fort Worth (76244) 3 + 11 + 21 = 35
11:00 Dallas (75247) 0 + 6 + 20 = 26
11:59 Denison (75020) 0 + 2 + 8 = 10
12:00 Frisco (75034) 3 + 1 + 5 = 9
12:00 Cypress (77429) 1 + 0 + 17 = 18
1:00 Conroe (77301) 2 + 1 + 10 = 13
1:00 Bedford (76021) 1 + 1 + 7 = 9
4:00 Austin (78727) 1 + 0 + 9 = 10
Utah
4/21 Saturday
10:00 Midvale (84047) 5 + 2 + 23 = 30
11:00 Saint George (84770) 3 + 0 + 5 = 8
1:30 Tooele (84074) 2 + 5 + 9 = 16
4/24 Tuesday
6:30 Lehi (84043) 0 + 1 + 8 = 9
4/25 Wednesday
5:30 Layton (84041) 1 + 2 + 20 = 23
4/26 Thursday
5:30 Tooele (84074) 21 + 1 + 7 = 29
4/27 Friday
6:00 Layton (84041) 1 + 0 + 10 = 11
4/28 Saturday
10:00 Salt Lake City (84106) 4 + 5 + 21 = 30
11:00 Saint George (84770) 1 + 2 + 5 = 8
11:00 Orem (84058) 0 + 0 + 8 = 8
4:00 Salt Lake City (84111) 0 + 1 + 18 = 19
5:30 North Salt Lake (84054) 0 + 1 + 9 = 10
5:30 North Ogden (84414) 5 + 3 + 19 = 27
Virginia
4/21 Saturday
10:00 Fredericksburg (22401) 1 + 3 + 6 = 10
11:00 Richmond (23228) 1 + 2 + 9 = 12
12:00 Portsmouth (23701) 4 + 2 + 14 = 20
12:00 Chantilly (20151) 5 + 7 + 24 = 36
12:00 Sterling (20165) 1 + 5 + 10 = 16
1:00 Lynchburg (24502) 3 + 2 + 5 = 10
1:30 Fredericksburg (22401) 1 + 1 + 6 = 8
3:00 Chantilly (20151) 0 + 3 + 11 = 14
6:00 Richmond (23228) 2 + 1 + 8 = 11
4/22 Sunday
10:00 Fredericksburg (22401) 0 + 3 + 5 = 8
11:00 Virginia Beach (23452) 0 + 0 + 8 = 8
11:30 Gainesville (20155) 2 + 2 + 6 = 10
1:00 Fredericksburg (22401) 0 + 2 + 6 = 8
4/23 Monday
3:45 Lexington (24450) 4 + 4 + 2 = 10
4/27 Friday
6:00 Richmond (23228) 0 + 2 + 6 = 8
4/28 Saturday
10:00 Falls Church (22046) 7 + 9 + 14 = 30
10:00 Sterling (20165) 0 + 0 + 8 = 8
11:00 Richmond (23228) 0 + 2 + 9 = 11
11:00 Hampton (23669) 0 + 7 + 5 = 12
12:00 Portsmouth (23701) 1 + 4 + 4 = 9
12:00 Winchester (22601) 3 + 5 + 11 = 19
12:00 Virginia Beach (23456) 2 + 4 + 5 = 11
1:00 Chantilly (20151) 0 + 7 + 10 = 17
1:00 Lynchburg (24502) 1 + 4 + 8 = 13
3:00 Winchester (22601) 2 + 4 + 8 = 14
4:00 Newport News (23608) 3 + 1 + 4 = 8
4/29 Sunday
12:00 Norfolk (23503) 2 + 0 + 7 = 9
1:00 Charlottesville (22901) 4 + 7 + 19 = 30
2:45 Fincastle (24090) 3 + 9 + 11 = 23
5:00 Fredericksburg (22401) 0 + 0 + 11 = 11
Washington
4/21 Saturday
12:05 Lakewood (98499) 0 + 0 + 10 = 10
10:00 Renton (98055) 4 + 5 + 27 = 36
10:00 Richland (99354) 4 + 6 + 20 = 30
11:00 Spokane (99201) 2 + 3 + 11 = 16
1:00 Wenatchee (98926) 3 + 6 + 4 = 13
1:00 Renton (98055) 2 + 4 + 15 = 21
2:00 Spokane Valley (99206) 0 + 0 + 8 = 8
2:00 Richland (99354) 0 + 1 + 15 = 16
3:30 Richland (99354) 0 + 1 + 14 = 15
4:00 Spokane Valley (99216) 3 + 3 + 11 = 17
4/22 Sunday
10:30 Tacoma (98406) 5 + 3 + 8 = 16
11:00 Lakewood (98499) 1 + 0 + 9 = 10
11:30 Spokane (99207) 5 + 9 + 39 = 53
12:30 Tacoma (98406) 5 + 1 + 8 = 14
1:30 Grandview (98930) 0 + 1 + 9 = 10
5:00 Anacortes (98221) 1 + 2 + 11 = 14
4/23 Monday
4:30 Auburn (98002) 1 + 2 + 9 = 12
4/24 Tuesday
5:30 Spokane (99207) 2 + 3 + 23 = 28
4/26 Thursday
5:45 Spokane Valley (99206) 0 + 2 + 7 = 9
6:00 Marysville (98270) 3 + 1 + 5 = 9
4/28 Saturday
9:30 Seattle (98116) 4 + 0 + 7 = 11
10:00 Redmond (98052) 3 + 3 + 14 = 20
10:00 Lacey (98503) 6 + 2 + 13 = 21
10:00 Edmonds (98026) 2 + 2 + 4 = 8
12:00 Kirkland (98033) 1 + 0 + 8 = 9
12:30 Spokane (99207) 3 + 2 + 26 = 31
2:00 Edmonds (98026) 3 + 2 + 18 = 23
2:30 Redmond (98052) 4 + 4 + 11 = 19
3:00 Puyallup (98373) 2 + 2 + 14 = 18
5:00 Tacoma (98409) 1 + 0 + 11 = 12
4/29 Sunday
10:00 Edmonds (98026) 4 + 2 + 2 = 8
11:00 Bellevue (98005) 8 + 3 + 21 = 32
12:00 Bremerton (98337) 5 + 3 + 15 = 23
12:30 Mt Vernon (98273) 1 + 0 + 9 = 10
1:00 Seattle (98109) 13 + 4 + 8 = 25
2:00 Edmonds (98026) 2 + 2 + 6 = 10
3:00 Seattle (98133) 5 + 3 + 5 = 13
5:00 Anacortes (98221) 1 + 0 + 7 = 8
West Virginia
4/21 Saturday
11:00 Morgantown (26501) 4 + 3 + 13 = 20
4/27 Friday
6:00 Morgantown (26501) 4 + 3 + 3 = 10
4/28 Saturday
12:00 Vienna (26105) 0 + 2 + 14 = 16
4/29 Sunday
1:00 Martinsburg (25404) 0 + 2 + 6 = 8
Wisconsin
4/21 Saturday
De Pere (54115) 0 + 2 + 27 = 29
9:00 Appleton (54915) 4 + 7 + 10 = 21
9:00 Green Bay (54304) 1 + 1 + 6 = 8
10:00 Fond Du Lac (54935) 5 + 9 + 16 = 30
11:00 Oconomowoc (53066) 2 + 0 + 18 = 20
11:00 La Crosse (54601) 5 + 4 + 11 = 20
1:30 De Pere (54115) 2 + 1 + 11 = 14
4/22 Sunday
9:00 Schofield (54476) 1 + 2 + 16 = 19
11:00 La Crosse (54601) 3 + 3 + 10 = 16
12:00 De Pere (54115) 1 + 0 + 7 = 8
12:00 La Crosse (54601) 0 + 2 + 6 = 8
12:30 Green Bay (54302) 3 + 7 + 19 = 29
4/24 Tuesday
3:00 Sheboygan (53081) 6 + 6 + 8 = 20
4/25 Wednesday
5:00 Waukesha (53189) 0 + 0 + 18 = 18
4/26 Thursday
4:00 Stevens Point (54481) 4 + 1 + 4 = 9
4:00 De Pere (54115) 1 + 1 + 16 = 18
4/28 Saturday
9:00 Green Bay (54304) 1 + 5 + 7 = 13
9:00 Appleton (54915) 3 + 6 + 6 = 15
11:00 La Crosse (54601) 7 + 4 + 7 = 18
12:00 Eau Claire (54701) 1 + 3 + 14 = 18
6:00 Eau Claire (54701) 2 + 0 + 12 = 14
4/29 Sunday
9:00 La Crosse (54601) 5 + 1 + 9 = 15
11:00 Stevens Point (54481) 5 + 5 + 14 = 24
12:00 Madison (53719) 5 + 12 + 25 = 42
12:00 La Crosse (54601) 1 + 3 + 6 = 10
12:00 Mount Pleasant (53403) 4 + 1 + 5 = 10
12:30 Green Bay (54302) 5 + 4 + 14 = 23
Wyoming
4/29 Sunday
9:00 Cheyenne (82001) 1 + 1 + 6 = 8